createdAt,value
2022-11-24T00:00:14.439Z,13.80
2022-11-24T00:02:41.402Z,13.05
2022-11-24T00:05:08.431Z,14.75
2022-11-24T00:07:35.305Z,13.65
2022-11-24T00:10:02.680Z,13.02
2022-11-24T00:12:30.308Z,15.40
2022-11-24T00:14:57.101Z,14.15
2022-11-24T00:17:23.923Z,13.35
2022-11-24T00:19:50.749Z,12.98
2022-11-24T00:22:17.704Z,12.45
2022-11-24T00:24:44.520Z,13.77
2022-11-24T00:27:11.372Z,13.43
2022-11-24T00:29:38.248Z,12.82
2022-11-24T00:32:06.721Z,13.02
2022-11-24T00:34:34.123Z,13.55
2022-11-24T00:37:01.214Z,13.93
2022-11-24T00:39:28.145Z,13.88
2022-11-24T00:41:54.962Z,14.07
2022-11-24T00:44:21.809Z,13.77
2022-11-24T00:46:48.893Z,14.27
2022-11-24T00:49:15.885Z,15.15
2022-11-24T00:51:42.821Z,15.10
2022-11-24T00:54:10.021Z,14.05
2022-11-24T00:56:37.055Z,13.93
2022-11-24T00:59:04.205Z,14.35
2022-11-24T01:01:34.215Z,13.18
2022-11-24T01:04:04.105Z,13.35
2022-11-24T01:06:32.779Z,12.98
2022-11-24T01:08:59.766Z,13.35
2022-11-24T01:11:51.189Z,13.85
2022-11-24T01:14:18.623Z,12.90
2022-11-24T01:16:45.445Z,13.55
2022-11-24T01:19:12.423Z,14.73
2022-11-24T01:21:39.289Z,13.05
2022-11-24T01:24:06.368Z,13.77
2022-11-24T01:26:33.256Z,14.15
2022-11-24T01:29:00.151Z,13.93
2022-11-24T01:31:27.342Z,14.27
2022-11-24T01:33:54.661Z,15.38
2022-11-24T01:36:21.813Z,15.80
2022-11-24T01:38:48.763Z,14.73
2022-11-24T01:41:17.399Z,15.52
2022-11-24T01:43:45.156Z,13.80
2022-11-24T01:46:15.335Z,16.23
2022-11-24T01:48:44.873Z,15.63
2022-11-24T01:51:15.155Z,16.27
2022-11-24T01:53:44.356Z,16.35
2022-11-24T01:56:12.017Z,16.80
2022-11-24T01:58:40.495Z,15.50
2022-11-24T02:01:07.588Z,15.57
2022-11-24T02:03:35.641Z,16.48
2022-11-24T02:06:11.344Z,16.70
2022-11-24T02:08:45.113Z,16.55
2022-11-24T02:11:11.951Z,16.80
2022-11-24T02:13:40.004Z,16.40
2022-11-24T02:16:07.802Z,15.85
2022-11-24T02:18:34.951Z,17.35
2022-11-24T02:21:01.785Z,16.73
2022-11-24T02:23:37.198Z,17.33
2022-11-24T02:26:07.088Z,16.02
2022-11-24T02:28:34.030Z,16.50
2022-11-24T02:31:01.064Z,16.38
2022-11-24T02:33:28.349Z,16.52
2022-11-24T02:35:55.159Z,16.98
2022-11-24T02:38:35.303Z,16.42
2022-11-24T02:41:05.160Z,15.35
2022-11-24T02:43:34.323Z,16.15
2022-11-24T02:46:01.197Z,17.17
2022-11-24T02:48:28.469Z,16.60
2022-11-24T02:50:55.256Z,17.52
2022-11-24T02:53:22.022Z,16.05
2022-11-24T02:55:48.952Z,17.60
2022-11-24T02:58:16.064Z,17.35
2022-11-24T03:00:42.892Z,17.83
2022-11-24T03:03:09.804Z,16.75
2022-11-24T03:05:36.671Z,15.82
2022-11-24T03:08:03.628Z,16.35
2022-11-24T03:10:30.453Z,17.88
2022-11-24T03:12:57.299Z,17.95
2022-11-24T03:15:24.298Z,16.80
2022-11-24T03:17:51.301Z,17.92
2022-11-24T03:20:18.860Z,16.77
2022-11-24T03:22:45.662Z,18.38
2022-11-24T03:25:12.508Z,17.45
2022-11-24T03:27:40.778Z,17.65
2022-11-24T03:30:08.058Z,18.25
2022-11-24T03:32:35.018Z,17.20
2022-11-24T03:35:02.074Z,17.65
2022-11-24T03:37:30.375Z,17.02
2022-11-24T03:39:57.279Z,17.17
2022-11-24T03:42:24.097Z,18.80
2022-11-24T03:44:51.118Z,17.50
2022-11-24T03:47:18.023Z,18.02
2022-11-24T03:49:44.902Z,17.92
2022-11-24T03:52:11.791Z,17.80
2022-11-24T03:54:38.780Z,18.52
2022-11-24T03:57:05.654Z,17.63
2022-11-24T03:59:32.574Z,18.63
2022-11-24T04:01:59.435Z,19.13
2022-11-24T04:04:26.422Z,18.75
2022-11-24T04:06:53.290Z,18.02
2022-11-24T04:09:20.305Z,18.05
2022-11-24T04:12:05.590Z,19.70
2022-11-24T04:14:32.815Z,18.38
2022-11-24T04:17:01.164Z,18.67
2022-11-24T04:19:30.270Z,17.77
2022-11-24T04:21:57.023Z,17.60
2022-11-24T04:24:23.868Z,17.92
2022-11-24T04:26:50.749Z,18.42
2022-11-24T04:29:17.545Z,17.73
2022-11-24T04:31:44.415Z,16.88
2022-11-24T04:34:11.571Z,18.75
2022-11-24T04:36:38.312Z,19.40
2022-11-24T04:39:24.291Z,19.52
2022-11-24T04:41:51.656Z,19.45
2022-11-24T04:44:18.411Z,18.52
2022-11-24T04:46:45.192Z,19.85
2022-11-24T04:49:12.090Z,19.45
2022-11-24T04:51:39.488Z,19.58
2022-11-24T04:54:11.159Z,20.23
2022-11-24T04:56:38.018Z,18.17
2022-11-24T04:59:08.438Z,18.60
2022-11-24T05:01:35.558Z,18.98
2022-11-24T05:04:02.448Z,19.40
2022-11-24T05:06:29.222Z,17.98
2022-11-24T05:08:55.993Z,18.77
2022-11-24T05:11:22.684Z,19.25
2022-11-24T05:13:49.471Z,19.20
2022-11-24T05:16:16.195Z,19.55
2022-11-24T05:18:42.905Z,18.63
2022-11-24T05:21:09.613Z,18.30
2022-11-24T05:23:36.386Z,19.05
2022-11-24T05:26:03.699Z,20.42
2022-11-24T05:28:30.751Z,18.83
2022-11-24T05:31:01.120Z,17.92
2022-11-24T05:35:55.982Z,18.85
2022-11-24T05:38:23.813Z,18.38
2022-11-24T05:40:50.506Z,18.65
2022-11-24T05:43:17.591Z,18.63
2022-11-24T05:45:44.493Z,17.83
2022-11-24T05:48:13.185Z,19.08
2022-11-24T05:50:39.886Z,20.63
2022-11-24T05:53:08.283Z,20.58
2022-11-24T05:55:35.466Z,21.27
2022-11-24T05:58:03.118Z,21.05
2022-11-24T06:00:30.522Z,17.63
2022-11-24T06:02:57.494Z,18.67
2022-11-24T06:05:24.409Z,18.52
2022-11-24T06:07:52.353Z,18.85
2022-11-24T06:10:20.055Z,18.60
2022-11-24T06:12:47.196Z,18.92
2022-11-24T06:15:13.978Z,17.60
2022-11-24T06:17:40.915Z,19.30
2022-11-24T06:20:08.126Z,18.15
2022-11-24T06:22:34.880Z,19.38
2022-11-24T06:25:01.844Z,19.25
2022-11-24T06:27:30.518Z,19.27
2022-11-24T06:29:57.245Z,19.15
2022-11-24T06:32:24.357Z,19.65
2022-11-24T06:34:51.057Z,18.98
2022-11-24T06:37:17.788Z,19.10
2022-11-24T06:39:44.541Z,20.77
2022-11-24T06:42:11.245Z,19.90
2022-11-24T06:44:38.015Z,18.67
2022-11-24T06:47:04.956Z,19.25
2022-11-24T06:49:31.651Z,18.33
2022-11-24T06:51:58.443Z,18.98
2022-11-24T06:54:25.140Z,16.40
2022-11-24T06:56:55.999Z,15.30
2022-11-24T06:59:22.745Z,16.33
2022-11-24T07:01:49.516Z,15.98
2022-11-24T07:04:16.897Z,15.73
2022-11-24T07:06:43.700Z,15.63
2022-11-24T07:09:11.185Z,17.20
2022-11-24T07:11:38.230Z,16.13
2022-11-24T07:14:05.087Z,17.58
2022-11-24T07:16:31.942Z,17.17
2022-11-24T07:18:58.969Z,17.15
2022-11-24T07:21:26.203Z,17.45
2022-11-24T07:23:53.998Z,16.88
2022-11-24T07:26:21.120Z,18.17
2022-11-24T07:28:47.935Z,16.83
2022-11-24T07:31:15.726Z,15.98
2022-11-24T07:33:42.474Z,15.82
2022-11-24T07:36:09.335Z,15.05
2022-11-24T07:38:36.473Z,16.75
2022-11-24T07:41:04.636Z,14.20
2022-11-24T07:43:31.948Z,16.08
2022-11-24T07:45:59.256Z,15.57
2022-11-24T07:48:26.054Z,16.00
2022-11-24T07:50:56.067Z,13.82
2022-11-24T07:53:23.191Z,15.40
2022-11-24T07:55:56.719Z,15.48
2022-11-24T07:58:25.538Z,16.73
2022-11-24T08:00:55.887Z,17.42
2022-11-24T08:03:22.779Z,16.38
2022-11-24T08:06:16.471Z,17.50
2022-11-24T08:08:42.885Z,17.83
2022-11-24T08:11:11.696Z,16.98
2022-11-24T08:13:38.488Z,17.38
2022-11-24T08:16:06.619Z,17.23
2022-11-24T08:18:33.987Z,18.30
2022-11-24T08:21:00.845Z,18.17
2022-11-24T08:23:27.826Z,15.98
2022-11-24T08:25:57.083Z,16.88
2022-11-24T08:28:24.413Z,15.68
2022-11-24T08:30:51.391Z,14.27
2022-11-24T08:33:18.128Z,14.30
2022-11-24T08:35:44.902Z,15.75
2022-11-24T08:38:11.655Z,15.38
2022-11-24T08:40:38.425Z,14.77
2022-11-24T08:43:05.301Z,14.75
2022-11-24T08:45:35.453Z,14.60
2022-11-24T08:48:06.693Z,15.23
2022-11-24T08:50:35.658Z,15.18
2022-11-24T08:53:02.493Z,14.45
2022-11-24T08:55:29.243Z,14.90
2022-11-24T08:57:55.961Z,15.57
2022-11-24T09:00:23.848Z,17.33
2022-11-24T09:02:57.389Z,15.65
2022-11-24T09:05:50.790Z,15.95
2022-11-24T09:08:11.447Z,15.65
2022-11-24T09:10:38.171Z,24.17
2022-11-24T09:13:05.079Z,17.13
2022-11-24T09:15:31.848Z,17.42
2022-11-24T09:17:58.564Z,16.65
2022-11-24T09:20:25.285Z,16.98
2022-11-24T09:22:51.956Z,16.73
2022-11-24T09:25:18.652Z,17.83
2022-11-24T09:27:45.447Z,17.88
2022-11-24T09:30:12.649Z,17.90
2022-11-24T09:32:39.401Z,17.38
2022-11-24T09:35:06.346Z,16.80
2022-11-24T09:37:33.315Z,17.20
2022-11-24T09:40:00.099Z,17.70
2022-11-24T09:42:40.284Z,17.98
2022-11-24T09:45:30.348Z,17.70
2022-11-24T09:48:16.140Z,16.92
2022-11-24T09:50:44.151Z,17.27
2022-11-24T09:53:31.910Z,17.40
2022-11-24T09:56:00.697Z,16.73
2022-11-24T09:58:27.607Z,16.92
2022-11-24T10:00:55.808Z,16.58
2022-11-24T10:03:41.925Z,16.65
2022-11-24T10:06:20.428Z,16.50
2022-11-24T10:09:05.857Z,18.75
2022-11-24T10:11:42.845Z,17.75
2022-11-24T10:14:09.552Z,18.08
2022-11-24T10:16:36.233Z,18.65
2022-11-24T10:19:14.490Z,17.85
2022-11-24T10:21:41.229Z,19.20
2022-11-24T10:24:26.751Z,19.17
2022-11-24T10:27:03.969Z,19.10
2022-11-24T10:29:30.687Z,18.92
2022-11-24T10:31:57.901Z,21.42
2022-11-24T10:34:31.478Z,18.85
2022-11-24T10:37:01.379Z,20.05
2022-11-24T10:39:32.805Z,18.27
2022-11-24T10:42:06.339Z,18.77
2022-11-24T10:44:33.185Z,19.50
2022-11-24T10:47:00.046Z,20.52
2022-11-24T10:49:31.772Z,20.25
2022-11-24T10:52:15.225Z,20.10
2022-11-24T10:54:56.044Z,21.70
2022-11-24T10:57:30.662Z,18.23
2022-11-24T10:59:57.510Z,20.98
2022-11-24T11:02:28.833Z,19.10
2022-11-24T11:04:55.660Z,19.98
2022-11-24T11:07:25.201Z,20.33
2022-11-24T11:10:12.167Z,20.77
2022-11-24T11:12:44.426Z,20.80
2022-11-24T11:15:30.484Z,21.75
2022-11-24T11:17:58.567Z,21.23
2022-11-24T11:20:28.137Z,20.33
2022-11-24T11:22:56.150Z,19.60
2022-11-24T11:25:25.011Z,21.38
2022-11-24T11:27:51.899Z,20.98
2022-11-24T11:36:11.396Z,19.33
2022-11-24T11:38:38.923Z,18.23
2022-11-24T11:41:06.053Z,19.38
2022-11-24T11:43:36.451Z,19.48
2022-11-24T11:46:13.278Z,17.83
2022-11-24T11:48:44.051Z,18.20
2022-11-24T11:51:26.792Z,19.30
2022-11-24T11:54:20.045Z,18.45
2022-11-24T11:56:49.693Z,18.73
2022-11-24T11:59:19.130Z,19.93
2022-11-24T12:02:02.858Z,19.25
2022-11-24T12:04:42.562Z,20.02
2022-11-24T12:07:09.269Z,19.13
2022-11-24T12:09:53.521Z,19.58
2022-11-24T12:12:32.301Z,18.77
2022-11-24T12:15:11.370Z,19.80
2022-11-24T12:17:44.012Z,16.58
2022-11-24T12:20:26.633Z,20.30
2022-11-24T12:22:53.352Z,20.20
2022-11-24T12:25:20.107Z,20.10
2022-11-24T12:27:56.042Z,19.90
2022-11-24T12:30:23.990Z,20.80
2022-11-24T12:33:00.345Z,20.23
2022-11-24T12:35:29.945Z,21.15
2022-11-24T12:37:56.635Z,20.40
2022-11-24T12:40:46.704Z,20.35
2022-11-24T12:45:43.395Z,20.95
2022-11-24T12:48:10.087Z,21.43
2022-11-24T12:50:38.235Z,20.33
2022-11-24T12:53:10.464Z,20.15
2022-11-24T12:55:38.383Z,20.23
2022-11-24T12:58:14.461Z,19.95
2022-11-24T13:00:53.524Z,18.52
2022-11-24T13:03:26.552Z,20.90
2022-11-24T13:06:08.749Z,22.05
2022-11-24T13:08:36.864Z,20.33
2022-11-24T13:11:21.645Z,19.58
2022-11-24T13:14:00.527Z,20.67
2022-11-24T13:16:36.125Z,18.77
2022-11-24T13:19:10.200Z,21.27
2022-11-24T13:21:50.078Z,20.08
2022-11-24T13:24:19.043Z,20.48
2022-11-24T13:26:51.712Z,20.40
2022-11-24T13:29:28.351Z,20.55
2022-11-24T13:31:55.878Z,20.15
2022-11-24T13:34:46.027Z,20.13
2022-11-24T13:37:33.656Z,22.30
2022-11-24T13:40:23.037Z,20.67
2022-11-24T13:43:01.566Z,21.48
2022-11-24T13:45:45.295Z,20.95
2022-11-24T13:48:21.852Z,20.55
2022-11-24T13:51:09.578Z,21.00
2022-11-24T13:53:41.428Z,21.52
2022-11-24T13:56:15.692Z,20.77
2022-11-24T13:58:54.811Z,21.33
2022-11-24T14:01:21.921Z,22.00
2022-11-24T14:04:22.076Z,21.30
2022-11-24T14:06:47.911Z,20.38
2022-11-24T14:09:27.233Z,22.85
2022-11-24T14:11:57.945Z,21.35
2022-11-24T14:14:25.381Z,21.15
2022-11-24T14:17:07.320Z,21.60
2022-11-24T14:19:34.221Z,20.73
2022-11-24T14:22:01.131Z,21.02
2022-11-24T14:24:33.447Z,20.20
2022-11-24T14:27:02.473Z,20.40
2022-11-24T14:29:33.296Z,20.63
2022-11-24T14:32:01.233Z,19.55
2022-11-24T14:34:29.543Z,20.17
2022-11-24T14:36:57.234Z,19.45
2022-11-24T14:39:25.416Z,20.33
2022-11-24T14:41:52.660Z,19.42
2022-11-24T14:44:21.304Z,19.58
2022-11-24T14:46:48.346Z,18.70
2022-11-24T14:49:20.321Z,18.23
2022-11-24T14:51:50.629Z,19.90
2022-11-24T14:54:18.921Z,20.60
2022-11-24T14:57:00.865Z,21.20
2022-11-24T14:59:29.161Z,20.75
2022-11-24T15:01:58.251Z,21.03
2022-11-24T15:07:19.429Z,20.08
2022-11-24T15:09:52.068Z,20.90
2022-11-24T15:12:20.092Z,20.58
2022-11-24T15:14:55.186Z,20.27
2022-11-24T15:17:23.839Z,21.23
2022-11-24T15:20:10.924Z,20.80
2022-11-24T15:22:39.569Z,19.05
2022-11-24T15:25:25.879Z,21.65
2022-11-24T15:27:53.269Z,19.15
2022-11-24T15:30:20.162Z,19.55
2022-11-24T15:32:50.902Z,20.08
2022-11-24T15:35:17.781Z,20.10
2022-11-24T15:37:44.667Z,19.98
2022-11-24T15:40:11.864Z,19.55
2022-11-24T15:42:39.730Z,19.40
2022-11-24T15:45:06.831Z,19.60
2022-11-24T15:47:33.686Z,20.00
2022-11-24T15:50:00.495Z,24.92
2022-11-24T15:52:27.543Z,25.63
2022-11-24T15:54:56.431Z,22.00
2022-11-24T15:57:23.462Z,21.48
2022-11-24T15:59:50.423Z,19.42
2022-11-24T16:02:17.379Z,17.35
2022-11-24T16:04:44.718Z,18.02
2022-11-24T16:07:12.175Z,18.58
2022-11-24T16:09:39.103Z,19.20
2022-11-24T16:12:08.536Z,18.70
2022-11-24T16:17:03.866Z,19.92
2022-11-24T16:19:31.519Z,19.38
2022-11-24T16:21:58.425Z,20.48
2022-11-24T16:24:25.343Z,22.75
2022-11-24T16:26:52.276Z,19.27
2022-11-24T16:29:21.081Z,19.10
2022-11-24T16:31:48.084Z,17.98
2022-11-24T16:34:16.863Z,18.45
2022-11-24T16:36:43.743Z,18.85
2022-11-24T16:39:11.058Z,18.75
2022-11-24T16:41:38.800Z,18.95
2022-11-24T16:44:05.600Z,18.70
2022-11-24T16:46:32.640Z,17.67
2022-11-24T16:49:03.796Z,18.02
2022-11-24T16:51:35.180Z,18.00
2022-11-24T16:54:04.440Z,16.90
2022-11-24T16:56:33.020Z,15.60
2022-11-24T16:59:00.327Z,15.73
2022-11-24T17:01:27.316Z,17.77
2022-11-24T17:03:54.278Z,17.02
2022-11-24T17:06:21.753Z,17.60
2022-11-24T17:08:49.194Z,18.15
2022-11-24T17:11:17.411Z,17.92
2022-11-24T17:13:45.632Z,16.83
2022-11-24T17:16:17.140Z,16.80
2022-11-24T17:18:44.350Z,16.70
2022-11-24T17:21:16.798Z,16.70
2022-11-24T17:23:44.121Z,17.80
2022-11-24T17:26:12.078Z,17.40
2022-11-24T17:28:39.392Z,16.08
2022-11-24T17:31:06.872Z,17.55
2022-11-24T17:33:34.187Z,17.75
2022-11-24T17:36:01.749Z,16.48
2022-11-24T17:38:30.684Z,16.50
2022-11-24T17:40:57.957Z,17.73
2022-11-24T17:43:25.040Z,16.70
2022-11-24T17:45:55.637Z,17.23
2022-11-24T17:48:23.179Z,16.48
2022-11-24T17:51:00.074Z,16.30
2022-11-24T17:53:27.248Z,16.50
2022-11-24T17:55:54.283Z,16.83
2022-11-24T17:58:21.130Z,16.58
2022-11-24T18:00:52.230Z,16.90
2022-11-24T18:03:19.226Z,15.80
2022-11-24T18:05:46.486Z,14.38
2022-11-24T18:08:13.675Z,12.32
2022-11-24T18:10:40.648Z,13.77
2022-11-24T18:13:08.782Z,14.20
2022-11-24T18:15:35.926Z,12.98
2022-11-24T18:18:03.434Z,11.57
2022-11-24T18:20:32.951Z,11.23
2022-11-24T18:23:06.139Z,11.30
2022-11-24T18:25:38.255Z,12.00
2022-11-24T18:28:05.151Z,12.38
2022-11-24T18:30:32.048Z,11.82
2022-11-24T18:32:58.990Z,12.25
2022-11-24T18:35:25.788Z,11.77
2022-11-24T18:37:52.731Z,12.05
2022-11-24T18:40:20.657Z,12.95
2022-11-24T18:42:48.899Z,11.52
2022-11-24T18:45:15.821Z,13.88
2022-11-24T18:47:42.781Z,12.27
2022-11-24T18:50:09.700Z,13.00
2022-11-24T18:52:36.648Z,12.85
2022-11-24T18:55:05.003Z,11.82
2022-11-24T18:57:31.883Z,12.88
2022-11-24T18:59:59.046Z,12.63
2022-11-24T19:02:25.988Z,12.88
2022-11-24T19:04:52.820Z,11.50
2022-11-24T19:07:21.178Z,11.05
2022-11-24T19:09:48.121Z,11.15
2022-11-24T19:12:15.047Z,12.00
2022-11-24T19:14:42.234Z,12.10
2022-11-24T19:17:09.123Z,11.00
2022-11-24T19:19:36.483Z,11.57
2022-11-24T19:22:04.071Z,11.80
2022-11-24T19:24:30.969Z,11.63
2022-11-24T19:26:57.898Z,12.00
2022-11-24T19:29:24.866Z,11.77
2022-11-24T19:31:53.838Z,12.50
2022-11-24T19:34:20.725Z,11.40
2022-11-24T19:36:47.566Z,12.32
2022-11-24T19:39:15.754Z,12.32
2022-11-24T19:41:42.578Z,13.23
2022-11-24T19:44:11.014Z,11.82
2022-11-24T19:46:38.056Z,13.82
2022-11-24T19:49:05.019Z,13.38
2022-11-24T19:51:33.293Z,13.10
2022-11-24T19:54:00.398Z,12.35
2022-11-24T19:56:28.383Z,11.80
2022-11-24T19:58:55.660Z,16.42
2022-11-24T20:01:30.036Z,11.82
2022-11-24T20:04:01.589Z,13.25
2022-11-24T20:06:29.789Z,12.68
2022-11-24T20:09:00.630Z,13.00
2022-11-24T20:11:29.299Z,12.65
2022-11-24T20:13:56.564Z,11.45
2022-11-24T20:16:29.708Z,12.90
2022-11-24T20:18:58.114Z,12.77
2022-11-24T20:21:25.784Z,13.52
2022-11-24T20:23:56.926Z,13.30
2022-11-24T20:26:24.873Z,13.18
2022-11-24T20:28:53.268Z,13.18
2022-11-24T20:31:22.661Z,13.90
2022-11-24T20:33:49.818Z,14.52
2022-11-24T20:36:18.227Z,13.65
2022-11-24T20:38:45.918Z,12.75
2022-11-24T20:41:14.269Z,14.15
2022-11-24T20:43:41.807Z,17.17
2022-11-24T20:46:13.236Z,11.38
2022-11-24T20:48:40.304Z,10.40
2022-11-24T20:51:08.465Z,10.35
2022-11-24T20:53:36.083Z,10.60
2022-11-24T20:56:06.179Z,9.60
2022-11-24T21:01:04.724Z,9.00
2022-11-24T21:03:31.806Z,8.93
2022-11-24T21:05:58.750Z,9.23
2022-11-24T21:08:25.594Z,8.60
2022-11-24T21:10:53.783Z,9.38
2022-11-24T21:13:20.775Z,8.35
2022-11-24T21:15:47.585Z,9.20
2022-11-24T21:18:14.493Z,9.35
2022-11-24T21:20:41.319Z,10.02
2022-11-24T21:23:08.398Z,10.27
2022-11-24T21:25:35.251Z,9.50
2022-11-24T21:28:02.155Z,8.80
2022-11-24T21:30:29.906Z,8.77
2022-11-24T21:32:56.901Z,8.90
2022-11-24T21:35:23.712Z,10.65
2022-11-24T21:37:50.796Z,9.85
2022-11-24T21:40:17.599Z,8.63
2022-11-24T21:42:44.458Z,9.43
2022-11-24T21:45:11.968Z,8.80
2022-11-24T21:47:38.982Z,9.18
2022-11-24T21:50:06.772Z,10.27
2022-11-24T21:52:33.586Z,9.27
2022-11-24T21:55:00.479Z,10.10
2022-11-24T21:57:28.453Z,9.38
2022-11-24T21:59:55.336Z,9.32
2022-11-24T22:02:22.229Z,9.55
2022-11-24T22:04:49.119Z,10.00
2022-11-24T22:07:16.018Z,10.35
2022-11-24T22:09:43.470Z,10.98
2022-11-24T22:12:10.353Z,9.70
2022-11-24T22:14:40.363Z,10.60
2022-11-24T22:17:07.791Z,10.60
2022-11-24T22:19:34.599Z,10.45
2022-11-24T22:22:01.427Z,9.60
2022-11-24T22:24:28.247Z,8.82
2022-11-24T22:26:55.151Z,8.48
2022-11-24T22:29:22.041Z,9.63
2022-11-24T22:31:49.366Z,9.45
2022-11-24T22:34:16.303Z,10.38
2022-11-24T22:36:43.193Z,10.50
2022-11-24T22:39:11.583Z,10.07
2022-11-24T22:41:38.699Z,9.70
2022-11-24T22:44:05.822Z,10.32
2022-11-24T22:46:32.830Z,10.13
2022-11-24T22:49:00.323Z,8.88
2022-11-24T22:51:32.565Z,9.75
2022-11-24T22:54:00.728Z,10.35
2022-11-24T22:56:33.619Z,10.20
2022-11-24T22:59:01.178Z,8.20
2022-11-24T23:01:28.513Z,8.38
2022-11-24T23:03:55.650Z,7.20
2022-11-24T23:06:23.689Z,7.82
2022-11-24T23:08:51.322Z,7.20
2022-11-24T23:11:19.356Z,7.68
2022-11-24T23:13:46.221Z,7.80
2022-11-24T23:16:14.470Z,7.05
2022-11-24T23:18:41.937Z,9.55
2022-11-24T23:21:11.320Z,7.22
2022-11-24T23:23:38.529Z,7.10
2022-11-24T23:26:06.812Z,7.13
2022-11-24T23:28:33.700Z,7.78
2022-11-24T23:31:01.930Z,7.88
2022-11-24T23:33:28.797Z,7.50
2022-11-24T23:35:55.604Z,7.43
2022-11-24T23:38:28.729Z,7.70
2022-11-24T23:41:04.622Z,8.02
2022-11-24T23:43:32.309Z,7.90
2022-11-24T23:46:18.649Z,7.85
2022-11-24T23:48:45.650Z,7.85
2022-11-24T23:51:16.646Z,7.55
2022-11-24T23:53:44.052Z,7.35
2022-11-24T23:56:20.921Z,7.95
2022-11-24T23:58:47.777Z,7.85
